Time;durP1;ratioP1;P1;durP2;ratioP2;P2;SDS_P1;SDS_P2;PMS_P1;PMS_P2;Temp;Humidity;BMP_temperature;BMP_pressure;BME280_temperature;BME280_humidity;BME280_pressure;Samples;Min_cycle;Max_cycle;Signal;HPM_P1;HPM_P2
2023/09/09 00:01:29;;;;;;;25.80;9.13;;;25.50;84.60;;;;;;5068719;28;20059;-56
2023/09/09 00:03:58;;;;;;;20.27;9.30;;;25.50;84.60;;;;;;5086490;28;20028;-56
2023/09/09 00:06:24;;;;;;;21.23;9.15;;;25.50;84.80;;;;;;5052003;28;20041;-56
2023/09/09 00:08:49;;;;;;;20.30;8.80;;;25.50;84.90;;;;;;5068566;28;20093;-56
2023/09/09 00:11:15;;;;;;;18.40;8.75;;;25.50;85.00;;;;;;5068602;28;20033;-56
2023/09/09 00:13:41;;;;;;;20.92;8.13;;;25.40;84.90;;;;;;5068296;28;20033;-55
2023/09/09 00:16:06;;;;;;;19.52;8.32;;;25.40;85.00;;;;;;5086134;28;20036;-56
2023/09/09 00:18:32;;;;;;;24.98;9.20;;;25.40;85.00;;;;;;5068457;28;20035;-56
2023/09/09 00:20:57;;;;;;;21.00;9.20;;;25.40;85.00;;;;;;5086242;28;20020;-56
2023/09/09 00:23:23;;;;;;;17.00;8.63;;;25.40;85.10;;;;;;5086136;28;20033;-56
2023/09/09 00:25:49;;;;;;;15.80;7.93;;;25.40;85.10;;;;;;5068138;28;20028;-56
2023/09/09 00:28:15;;;;;;;14.07;8.32;;;25.40;85.30;;;;;;5086262;28;20037;-56
2023/09/09 00:30:41;;;;;;;20.48;8.27;;;25.40;85.30;;;;;;5086288;28;20050;-56
2023/09/09 00:33:09;;;;;;;16.20;8.73;;;25.30;85.30;;;;;;5086144;28;20075;-56
2023/09/09 00:35:38;;;;;;;18.42;8.15;;;25.30;85.40;;;;;;5086243;28;20033;-56
2023/09/09 00:38:04;;;;;;;16.55;8.25;;;25.30;85.50;;;;;;5068838;28;20142;-57
2023/09/09 00:40:29;;;;;;;17.17;8.88;;;25.30;85.50;;;;;;5086198;28;20032;-56
2023/09/09 00:42:55;;;;;;;12.18;8.13;;;25.30;85.50;;;;;;5085976;28;20029;-56
2023/09/09 00:45:20;;;;;;;15.82;7.88;;;25.30;85.50;;;;;;5085954;28;20120;-56
2023/09/09 00:47:46;;;;;;;16.10;8.73;;;25.20;86.10;;;;;;5085781;28;20067;-56
2023/09/09 00:50:13;;;;;;;13.60;8.18;;;25.20;85.50;;;;;;5068101;28;20037;-56
2023/09/09 00:52:40;;;;;;;13.45;7.70;;;25.20;85.50;;;;;;5067491;28;20033;-56
2023/09/09 00:55:10;;;;;;;16.25;8.05;;;25.20;85.50;;;;;;5065786;28;20045;-56
2023/09/09 00:57:36;;;;;;;14.77;7.65;;;25.20;85.60;;;;;;5065804;28;20520;-56
2023/09/09 01:00:09;;;;;;;15.40;7.43;;;25.20;85.80;;;;;;5083839;28;20029;-56
2023/09/09 01:02:34;;;;;;;16.67;7.65;;;25.20;86.00;;;;;;5069297;28;20033;-56
2023/09/09 01:05:00;;;;;;;11.60;7.70;;;25.10;86.00;;;;;;5068040;28;20112;-56
2023/09/09 01:07:27;;;;;;;13.32;8.13;;;25.10;86.10;;;;;;5069434;28;20036;-56
2023/09/09 01:09:52;;;;;;;11.02;7.63;;;25.10;86.20;;;;;;5055216;28;20041;-56
2023/09/09 01:12:19;;;;;;;13.98;7.70;;;25.10;86.30;;;;;;5071534;28;20116;-56
2023/09/09 01:14:44;;;;;;;12.43;7.68;;;25.10;86.30;;;;;;5071920;28;20045;-56
2023/09/09 01:17:10;;;;;;;14.57;7.68;;;25.10;86.40;;;;;;5072199;28;20044;-56
2023/09/09 01:19:35;;;;;;;12.10;7.63;;;25.10;86.50;;;;;;5072264;28;20152;-56
2023/09/09 01:22:06;;;;;;;13.35;7.85;;;25.00;86.30;;;;;;5073175;28;20093;-55
2023/09/09 01:24:32;;;;;;;13.85;7.97;;;25.00;86.30;;;;;;5074099;28;20062;-56
2023/09/09 01:26:58;;;;;;;12.32;7.72;;;25.00;86.40;;;;;;5073824;28;20036;-56
2023/09/09 01:29:23;;;;;;;12.48;7.85;;;25.00;86.40;;;;;;5089576;28;20040;-56
2023/09/09 01:31:49;;;;;;;12.60;7.47;;;25.00;86.50;;;;;;5089439;28;20032;-56
2023/09/09 01:34:14;;;;;;;12.57;7.70;;;25.00;86.50;;;;;;5089728;28;20056;-55
2023/09/09 01:36:40;;;;;;;11.00;7.50;;;25.00;86.70;;;;;;5071961;28;20028;-56
2023/09/09 01:39:06;;;;;;;11.63;7.68;;;24.90;87.30;;;;;;5071751;28;20111;-56
2023/09/09 01:41:31;;;;;;;11.23;7.43;;;24.90;86.80;;;;;;5091120;28;20040;-56
2023/09/09 01:43:57;;;;;;;11.02;7.40;;;24.90;87.00;;;;;;5073005;28;20037;-56
2023/09/09 01:46:22;;;;;;;9.45;7.65;;;24.90;87.00;;;;;;5071631;28;20032;-56
2023/09/09 01:48:48;;;;;;;11.68;7.68;;;24.90;87.70;;;;;;5071288;28;20044;-56
2023/09/09 01:51:13;;;;;;;10.15;6.95;;;24.90;87.10;;;;;;5071596;28;20032;-56
2023/09/09 01:53:39;;;;;;;11.02;7.30;;;24.90;87.20;;;;;;5071795;28;20045;-54
2023/09/09 01:56:04;;;;;;;11.45;7.70;;;24.80;87.20;;;;;;5089738;28;20092;-56
2023/09/09 01:58:30;;;;;;;9.00;7.18;;;24.80;87.20;;;;;;5072205;28;20033;-56
2023/09/09 02:00:55;;;;;;;12.93;7.35;;;24.80;87.20;;;;;;5091505;28;20083;-56
2023/09/09 02:03:21;;;;;;;11.32;7.13;;;24.80;87.20;;;;;;5074269;28;20032;-56
2023/09/09 02:05:47;;;;;;;8.68;7.10;;;24.80;87.30;;;;;;5071645;28;20082;-56
2023/09/09 02:08:13;;;;;;;13.43;7.85;;;24.80;87.30;;;;;;5071210;28;20041;-56
2023/09/09 02:10:39;;;;;;;11.75;7.15;;;24.70;87.30;;;;;;5088937;28;20088;-56
2023/09/09 02:13:04;;;;;;;11.57;7.78;;;24.70;87.40;;;;;;5071241;28;20053;-56
2023/09/09 02:15:30;;;;;;;14.07;7.22;;;24.70;87.60;;;;;;5071048;28;20111;-56
2023/09/09 02:17:57;;;;;;;15.25;7.40;;;24.70;87.70;;;;;;5088862;28;20106;-56
2023/09/09 02:20:23;;;;;;;12.75;7.38;;;24.70;87.70;;;;;;5088114;28;20043;-56
2023/09/09 02:22:48;;;;;;;13.00;7.38;;;24.60;87.80;;;;;;5071220;28;20052;-56
2023/09/09 02:25:14;;;;;;;14.18;7.60;;;24.70;87.90;;;;;;5088958;28;20100;-56
2023/09/09 02:27:39;;;;;;;9.57;6.97;;;24.70;88.60;;;;;;5089199;28;20041;-56
2023/09/09 02:30:05;;;;;;;9.15;7.13;;;24.60;87.90;;;;;;5072028;28;20108;-56
2023/09/09 02:32:31;;;;;;;11.88;8.05;;;24.60;87.90;;;;;;5091062;28;20123;-56
2023/09/09 02:34:57;;;;;;;12.57;8.23;;;24.60;87.90;;;;;;5071268;28;20499;-56
2023/09/09 02:37:24;;;;;;;8.68;7.78;;;24.60;88.00;;;;;;5088324;28;20062;-56
2023/09/09 02:39:50;;;;;;;12.52;8.13;;;24.60;88.10;;;;;;5053820;28;20029;-56
2023/09/09 02:42:20;;;;;;;11.35;7.63;;;24.50;88.10;;;;;;5088729;28;20374;-56
2023/09/09 02:44:46;;;;;;;12.90;7.95;;;24.60;88.20;;;;;;5070673;28;20036;-55
2023/09/09 02:47:12;;;;;;;8.07;7.28;;;24.50;88.20;;;;;;5070667;28;20037;-56
2023/09/09 02:49:38;;;;;;;8.73;7.78;;;24.50;88.30;;;;;;5089621;28;20062;-56
2023/09/09 02:52:04;;;;;;;10.05;7.70;;;24.50;88.40;;;;;;5070102;28;20119;-56
2023/09/09 02:54:29;;;;;;;8.73;7.82;;;24.50;88.30;;;;;;5070540;28;20118;-56
2023/09/09 02:56:55;;;;;;;11.82;8.00;;;24.50;88.50;;;;;;5069994;28;20032;-56
2023/09/09 02:59:22;;;;;;;10.48;7.55;;;24.50;88.40;;;;;;5070278;28;20058;-56
2023/09/09 03:01:47;;;;;;;10.82;7.78;;;24.40;88.50;;;;;;5070427;28;20037;-56
2023/09/09 03:04:13;;;;;;;10.07;7.15;;;24.50;88.60;;;;;;5088088;28;20055;-56
2023/09/09 03:06:38;;;;;;;12.10;8.15;;;24.40;88.50;;;;;;5071572;28;20070;-56
2023/09/09 03:09:05;;;;;;;10.98;7.78;;;24.40;88.60;;;;;;5054582;28;20044;-56
2023/09/09 03:11:31;;;;;;;12.57;7.93;;;24.40;88.70;;;;;;5070828;28;20059;-56
2023/09/09 03:13:57;;;;;;;11.43;8.18;;;24.40;88.80;;;;;;5087993;28;20476;-56
2023/09/09 03:16:23;;;;;;;11.50;8.45;;;24.40;88.80;;;;;;5087876;28;20041;-56
2023/09/09 03:18:48;;;;;;;11.02;8.82;;;24.40;88.80;;;;;;5069913;28;20032;-56
2023/09/09 03:21:14;;;;;;;11.05;7.90;;;24.30;88.90;;;;;;5087479;28;20047;-56
2023/09/09 03:23:39;;;;;;;12.68;8.75;;;24.30;89.70;;;;;;5052670;28;20036;-55
2023/09/09 03:26:05;;;;;;;9.13;8.23;;;24.40;89.10;;;;;;5069427;28;20040;-56
2023/09/09 03:28:31;;;;;;;9.95;8.55;;;24.30;89.20;;;;;;5069651;28;20047;-56
2023/09/09 03:30:59;;;;;;;11.20;8.38;;;24.30;89.40;;;;;;5087676;28;20058;-56
2023/09/09 03:33:27;;;;;;;11.15;7.80;;;24.30;89.40;;;;;;5069615;28;20041;-56
2023/09/09 03:35:52;;;;;;;9.10;8.18;;;24.30;89.40;;;;;;5087751;28;20032;-56
2023/09/09 03:38:18;;;;;;;8.38;7.47;;;24.30;89.50;;;;;;5069844;28;20070;-56
2023/09/09 03:40:44;;;;;;;8.90;8.00;;;24.30;89.60;;;;;;5069418;28;20390;-56
2023/09/09 03:43:09;;;;;;;8.55;7.50;;;24.20;89.60;;;;;;5086908;28;20033;-56
2023/09/09 03:45:35;;;;;;;13.80;8.15;;;24.20;89.70;;;;;;5068842;28;20028;-56
2023/09/09 03:48:03;;;;;;;12.65;7.95;;;24.20;89.80;;;;;;5068706;28;20052;-56
2023/09/09 03:50:28;;;;;;;11.20;9.10;;;24.20;90.20;;;;;;5069133;28;20032;-56
2023/09/09 03:52:54;;;;;;;8.52;7.65;;;24.20;89.80;;;;;;5068591;28;20035;-56
2023/09/09 03:55:19;;;;;;;11.68;8.40;;;24.20;89.80;;;;;;5068895;28;20044;-56
2023/09/09 03:57:45;;;;;;;11.55;8.35;;;24.20;89.80;;;;;;5086750;28;20123;-56
2023/09/09 04:00:11;;;;;;;10.07;7.90;;;24.20;89.90;;;;;;5052210;28;20040;-56
2023/09/09 04:02:37;;;;;;;10.15;8.23;;;24.20;89.90;;;;;;5086695;28;20040;-56
2023/09/09 04:05:02;;;;;;;8.40;7.60;;;24.20;89.90;;;;;;5068781;28;20075;-56
2023/09/09 04:07:33;;;;;;;8.48;7.53;;;24.10;89.90;;;;;;5086666;28;20043;-56
2023/09/09 04:09:58;;;;;;;9.90;7.95;;;24.20;90.00;;;;;;5069405;28;20044;-56
2023/09/09 04:12:24;;;;;;;10.85;8.20;;;24.20;90.00;;;;;;5068706;28;20040;-56
2023/09/09 04:14:50;;;;;;;9.10;7.40;;;24.10;90.00;;;;;;5086330;28;20052;-56
2023/09/09 04:17:16;;;;;;;8.30;7.40;;;24.10;90.10;;;;;;5068782;28;20063;-56
2023/09/09 04:19:41;;;;;;;11.32;7.65;;;24.10;90.10;;;;;;5086258;28;20032;-56
2023/09/09 04:22:07;;;;;;;13.15;8.70;;;24.10;90.10;;;;;;5068575;28;20115;-56
2023/09/09 04:24:32;;;;;;;9.38;8.48;;;24.10;90.20;;;;;;5068414;28;20465;-56
2023/09/09 04:26:58;;;;;;;10.23;8.90;;;24.00;90.20;;;;;;5084775;28;20041;-56
2023/09/09 04:29:24;;;;;;;8.45;7.65;;;24.00;90.20;;;;;;5051324;28;20032;-56
2023/09/09 04:31:49;;;;;;;8.93;7.93;;;24.00;90.30;;;;;;5086235;28;20166;-56
2023/09/09 04:34:15;;;;;;;11.18;8.15;;;24.00;90.30;;;;;;5086105;28;20044;-56
2023/09/09 04:36:41;;;;;;;12.35;8.20;;;24.00;90.30;;;;;;5051816;28;20044;-56
2023/09/09 04:39:07;;;;;;;11.38;8.45;;;24.00;90.30;;;;;;5086583;28;20063;-56
2023/09/09 04:41:33;;;;;;;10.85;7.88;;;24.00;90.40;;;;;;5052237;28;20044;-56
2023/09/09 04:43:58;;;;;;;9.75;8.48;;;24.00;90.40;;;;;;5074883;28;20047;-56
2023/09/09 04:46:24;;;;;;;10.95;7.55;;;23.90;90.40;;;;;;5075061;28;20048;-56
2023/09/09 04:48:52;;;;;;;10.50;8.48;;;23.90;90.50;;;;;;5092651;28;20051;-56
2023/09/09 04:51:17;;;;;;;10.55;8.25;;;23.90;90.50;;;;;;5074893;28;20044;-56
2023/09/09 04:53:43;;;;;;;13.52;7.65;;;23.90;90.40;;;;;;5092629;28;20025;-56
2023/09/09 04:56:09;;;;;;;9.07;8.20;;;23.90;90.40;;;;;;5058256;28;20041;-56
2023/09/09 04:58:34;;;;;;;9.45;8.43;;;23.90;90.50;;;;;;5074795;28;20035;-56
2023/09/09 05:01:00;;;;;;;11.77;8.18;;;23.90;90.50;;;;;;5092830;28;20035;-56
2023/09/09 05:03:25;;;;;;;12.00;8.40;;;23.80;90.50;;;;;;5058106;28;20230;-56
2023/09/09 05:05:51;;;;;;;9.80;7.50;;;23.80;90.50;;;;;;5074634;28;20138;-56
2023/09/09 05:08:17;;;;;;;12.65;8.43;;;23.80;90.50;;;;;;5074723;28;20044;-56
2023/09/09 05:10:42;;;;;;;11.70;8.93;;;23.80;90.50;;;;;;5092802;28;20056;-56
2023/09/09 05:13:08;;;;;;;8.98;8.13;;;23.80;90.50;;;;;;5092642;28;20059;-56
2023/09/09 05:15:33;;;;;;;11.68;8.20;;;23.80;90.50;;;;;;5092652;28;20035;-56
2023/09/09 05:17:59;;;;;;;8.77;7.90;;;23.80;90.50;;;;;;5092359;28;20435;-56
2023/09/09 05:20:24;;;;;;;10.15;8.20;;;23.80;90.60;;;;;;5057856;28;20028;-56
2023/09/09 05:22:50;;;;;;;8.10;7.30;;;23.80;90.60;;;;;;5092469;28;20056;-56
2023/09/09 05:25:16;;;;;;;8.70;7.90;;;23.80;90.60;;;;;;5074537;28;20213;-58
2023/09/09 05:27:41;;;;;;;9.85;8.77;;;23.80;90.60;;;;;;5092437;28;20044;-56
2023/09/09 05:30:07;;;;;;;12.32;8.90;;;23.70;90.60;;;;;;5092585;28;20066;-56
2023/09/09 05:32:34;;;;;;;13.82;7.80;;;23.70;90.70;;;;;;5074455;28;20040;-56
2023/09/09 05:35:00;;;;;;;9.57;7.85;;;23.70;90.70;;;;;;5058195;28;20052;-56
2023/09/09 05:37:27;;;;;;;8.80;7.65;;;23.70;90.70;;;;;;5075000;28;20054;-56
2023/09/09 05:39:52;;;;;;;9.70;7.40;;;23.70;90.70;;;;;;5074704;28;20052;-56
2023/09/09 05:42:18;;;;;;;9.70;7.88;;;23.70;90.70;;;;;;5092319;28;20051;-56
2023/09/09 05:44:44;;;;;;;8.70;7.60;;;23.70;90.70;;;;;;5074300;28;20044;-56
2023/09/09 05:47:09;;;;;;;8.88;7.38;;;23.70;90.70;;;;;;5074044;28;20078;-56
2023/09/09 05:49:35;;;;;;;8.25;7.45;;;23.70;90.70;;;;;;5092331;28;20044;-56
2023/09/09 05:52:01;;;;;;;9.77;7.60;;;23.70;90.70;;;;;;5092134;28;20032;-56
2023/09/09 05:54:26;;;;;;;9.25;7.78;;;23.70;90.70;;;;;;5070802;28;20047;-56
2023/09/09 05:56:52;;;;;;;10.38;7.80;;;23.70;90.70;;;;;;5088909;28;20491;-56
2023/09/09 05:59:18;;;;;;;8.75;7.82;;;23.70;90.80;;;;;;5071193;28;20036;-56
2023/09/09 06:01:43;;;;;;;10.45;7.43;;;23.60;90.80;;;;;;5071060;28;20028;-56
2023/09/09 06:04:09;;;;;;;8.38;7.40;;;23.60;90.80;;;;;;5088892;28;20040;-56
2023/09/09 06:06:34;;;;;;;8.57;7.63;;;23.60;90.80;;;;;;5070959;28;20029;-56
2023/09/09 06:09:00;;;;;;;8.93;7.55;;;23.60;90.80;;;;;;5054206;28;20051;-56
2023/09/09 06:11:25;;;;;;;9.10;7.22;;;23.60;90.80;;;;;;5070678;28;20063;-55
2023/09/09 06:13:51;;;;;;;8.50;7.60;;;23.60;90.80;;;;;;5070634;28;20032;-56
2023/09/09 06:16:17;;;;;;;8.57;7.68;;;23.60;90.80;;;;;;5088569;28;20062;-56
2023/09/09 06:18:42;;;;;;;8.30;7.40;;;23.60;90.80;;;;;;5088500;28;20032;-56
2023/09/09 06:21:08;;;;;;;10.00;7.93;;;23.60;90.80;;;;;;5088639;28;20537;-56
2023/09/09 06:23:35;;;;;;;8.80;7.90;;;23.60;90.90;;;;;;5088606;28;20055;-56
2023/09/09 06:26:01;;;;;;;9.15;7.97;;;23.60;91.00;;;;;;5088640;28;20044;-56
2023/09/09 06:28:26;;;;;;;8.93;7.40;;;23.60;91.00;;;;;;5070455;28;20096;-56
2023/09/09 06:30:52;;;;;;;9.07;7.70;;;23.60;91.10;;;;;;5088539;28;20044;-56
2023/09/09 06:33:17;;;;;;;8.20;7.35;;;23.60;91.10;;;;;;5088286;28;20533;-56
2023/09/09 06:35:49;;;;;;;8.73;7.88;;;23.60;91.20;;;;;;5088281;28;20060;-56
2023/09/09 06:38:15;;;;;;;12.60;7.80;;;23.60;91.30;;;;;;5070272;28;20032;-56
2023/09/09 06:40:43;;;;;;;9.77;7.95;;;23.60;91.30;;;;;;5070183;28;20039;-56
2023/09/09 06:43:09;;;;;;;10.30;7.90;;;23.60;91.30;;;;;;5070462;28;20091;-56
2023/09/09 06:45:34;;;;;;;9.00;7.80;;;23.60;91.30;;;;;;5088214;28;20045;-56
2023/09/09 06:48:00;;;;;;;9.35;8.15;;;23.60;91.40;;;;;;5070008;28;20063;-56
2023/09/09 06:50:26;;;;;;;8.85;7.82;;;23.60;91.40;;;;;;5088108;28;20052;-56
2023/09/09 06:52:51;;;;;;;14.23;8.38;;;23.60;91.50;;;;;;5070051;28;20115;-56
2023/09/09 06:55:17;;;;;;;9.30;7.80;;;23.60;91.50;;;;;;5087943;28;20083;-56
2023/09/09 06:57:42;;;;;;;8.50;7.68;;;23.60;91.50;;;;;;5053156;28;20036;-56
2023/09/09 07:00:09;;;;;;;13.63;7.72;;;23.60;91.40;;;;;;5053249;28;20068;-56
2023/09/09 07:02:35;;;;;;;9.27;7.25;;;23.60;91.50;;;;;;5069791;28;20108;-57
2023/09/09 07:05:00;;;;;;;9.23;8.27;;;23.60;91.50;;;;;;5069374;28;20434;-56
2023/09/09 07:07:26;;;;;;;11.10;7.95;;;23.60;91.60;;;;;;5069925;28;20043;-56
2023/09/09 07:09:51;;;;;;;8.63;7.72;;;23.60;91.70;;;;;;5087587;28;20062;-56
2023/09/09 07:12:17;;;;;;;8.23;7.53;;;23.60;91.60;;;;;;5069879;28;20033;-57
2023/09/09 07:14:43;;;;;;;10.98;7.75;;;23.70;91.60;;;;;;5025372;28;20053;-56
2023/09/09 07:17:09;;;;;;;9.00;7.90;;;23.70;91.60;;;;;;5067396;28;20028;-56
2023/09/09 07:19:35;;;;;;;8.55;7.65;;;23.60;91.60;;;;;;5049668;28;20037;-56
2023/09/09 07:22:01;;;;;;;9.30;7.90;;;23.70;91.70;;;;;;5049617;28;20131;-56
2023/09/09 07:24:26;;;;;;;10.68;8.45;;;23.70;91.60;;;;;;5067225;28;20072;-56
2023/09/09 07:26:52;;;;;;;9.27;8.07;;;23.70;91.60;;;;;;5067226;28;20041;-57
2023/09/09 07:29:17;;;;;;;8.93;8.02;;;23.70;91.60;;;;;;5032936;28;20047;-56
2023/09/09 07:31:43;;;;;;;7.95;7.22;;;23.70;91.60;;;;;;5067079;28;20048;-57
2023/09/09 07:34:08;;;;;;;8.98;6.90;;;23.70;91.70;;;;;;5065195;28;20045;-56
2023/09/09 07:36:34;;;;;;;10.48;7.90;;;23.70;91.70;;;;;;5066553;28;20029;-57
2023/09/09 07:39:00;;;;;;;9.13;7.55;;;23.70;91.70;;;;;;5065204;28;20044;-56
2023/09/09 07:41:25;;;;;;;11.93;8.10;;;23.70;91.70;;;;;;5048872;28;20472;-56
2023/09/09 07:43:51;;;;;;;10.55;8.90;;;23.70;91.90;;;;;;5048533;28;20047;-57
2023/09/09 07:46:17;;;;;;;9.82;8.82;;;23.70;92.30;;;;;;5066493;28;20056;-56
2023/09/09 07:48:42;;;;;;;9.52;8.60;;;23.70;92.30;;;;;;5066409;28;20052;-56
2023/09/09 07:51:08;;;;;;;9.50;8.50;;;23.60;92.40;;;;;;5048903;28;20037;-56
2023/09/09 07:53:33;;;;;;;12.82;8.70;;;23.70;92.70;;;;;;5066705;28;20037;-57
2023/09/09 07:55:59;;;;;;;12.55;8.80;;;23.70;92.90;;;;;;5065231;28;20068;-56
2023/09/09 07:58:25;;;;;;;12.55;9.30;;;23.60;92.90;;;;;;5066747;28;20029;-56
2023/09/09 08:01:12;;;;;;;13.77;9.52;;;23.60;93.10;;;;;;5048788;28;20076;-56
2023/09/09 08:03:38;;;;;;;12.70;10.18;;;23.60;93.40;;;;;;5066522;28;20104;-56
2023/09/09 08:06:06;;;;;;;15.23;10.35;;;23.60;93.70;;;;;;5066088;28;20107;-56
2023/09/09 08:08:32;;;;;;;12.80;10.25;;;23.60;94.10;;;;;;5070912;28;20052;-56
2023/09/09 08:10:58;;;;;;;16.33;10.93;;;23.50;94.30;;;;;;5075133;28;20052;-57
2023/09/09 08:13:24;;;;;;;17.70;10.63;;;23.50;94.40;;;;;;5080344;28;20067;-57
2023/09/09 08:15:50;;;;;;;16.48;10.30;;;23.50;94.70;;;;;;5068299;28;20032;-57
2023/09/09 08:18:15;;;;;;;882.75;137.70;;;23.50;94.80;;;;;;5081692;28;20051;-56
2023/09/09 08:20:41;;;;;;;79.40;18.55;;;23.50;94.70;;;;;;5067729;28;20043;-56
2023/09/09 08:23:08;;;;;;;22.63;11.02;;;23.50;94.90;;;;;;5067848;28;20052;-57
2023/09/09 08:25:33;;;;;;;23.42;11.75;;;23.50;94.90;;;;;;5086327;28;20052;-57
2023/09/09 08:28:01;;;;;;;30.85;11.57;;;23.50;94.90;;;;;;5058573;28;20040;-57
2023/09/09 08:30:27;;;;;;;35.88;13.82;;;23.50;95.40;;;;;;5045583;28;20175;-57
2023/09/09 08:32:53;;;;;;;57.15;15.10;;;23.50;95.50;;;;;;5065701;28;20041;-56
2023/09/09 08:35:18;;;;;;;21.38;11.90;;;23.60;95.50;;;;;;5073110;28;20051;-56
2023/09/09 08:37:44;;;;;;;201.80;26.67;;;23.60;95.40;;;;;;5073102;28;20037;-56
2023/09/09 08:40:10;;;;;;;41.95;13.93;;;23.60;95.70;;;;;;5081841;28;20037;-57
2023/09/09 08:42:50;;;;;;;23.75;11.30;;;23.60;95.70;;;;;;5064586;28;20033;-56
2023/09/09 08:45:19;;;;;;;37.83;13.20;;;23.60;95.80;;;;;;5085736;28;20041;-57
2023/09/09 08:47:45;;;;;;;30.88;12.98;;;23.60;96.10;;;;;;5059258;28;20037;-56
2023/09/09 08:50:10;;;;;;;42.83;12.13;;;23.70;96.20;;;;;;5051656;28;20041;-56
2023/09/09 08:52:36;;;;;;;32.25;12.23;;;23.70;96.40;;;;;;5053210;28;20048;-57
2023/09/09 08:55:01;;;;;;;41.15;12.18;;;23.70;96.20;;;;;;5030913;28;20033;-57
2023/09/09 08:57:28;;;;;;;52.10;14.60;;;23.70;96.10;;;;;;5048031;28;20033;-56
2023/09/09 08:59:53;;;;;;;39.65;13.57;;;23.70;96.40;;;;;;5047759;28;20079;-56
2023/09/09 09:02:19;;;;;;;70.90;14.48;;;23.70;96.40;;;;;;5032715;28;20021;-56
2023/09/09 09:04:45;;;;;;;67.10;15.32;;;23.80;96.70;;;;;;5033376;28;20056;-56
2023/09/09 09:07:10;;;;;;;51.50;13.88;;;23.70;96.80;;;;;;5048792;28;20045;-57
2023/09/09 09:09:36;;;;;;;46.17;14.13;;;23.80;96.70;;;;;;5030108;28;20626;-57
2023/09/09 09:12:06;;;;;;;58.05;13.77;;;23.80;96.40;;;;;;5013437;28;20056;-56
2023/09/09 09:14:32;;;;;;;53.03;14.00;;;23.80;96.30;;;;;;5073238;28;20060;-57
2023/09/09 09:16:57;;;;;;;53.30;13.98;;;23.90;96.40;;;;;;5069676;28;20029;-57
2023/09/09 09:19:29;;;;;;;60.80;14.70;;;23.90;96.50;;;;;;5082062;28;20036;-56
2023/09/09 09:21:55;;;;;;;62.55;16.23;;;24.00;96.70;;;;;;5080476;28;20024;-57
2023/09/09 09:24:22;;;;;;;56.08;15.85;;;24.00;96.70;;;;;;5075347;28;20041;-56
2023/09/09 09:26:48;;;;;;;64.32;15.55;;;24.00;96.80;;;;;;5067271;28;20059;-56
2023/09/09 09:29:13;;;;;;;95.90;19.25;;;24.10;96.50;;;;;;5067785;28;20040;-56
2023/09/09 09:31:39;;;;;;;61.88;15.50;;;24.10;96.40;;;;;;5054145;28;20037;-56
2023/09/09 09:34:04;;;;;;;91.60;18.55;;;24.20;96.40;;;;;;5055817;28;20404;-57
2023/09/09 09:36:30;;;;;;;96.15;18.98;;;24.20;96.70;;;;;;5067715;28;20029;-56
2023/09/09 09:38:56;;;;;;;82.03;18.40;;;24.30;96.40;;;;;;5055441;28;20052;-56
2023/09/09 09:41:22;;;;;;;99.43;18.33;;;24.30;96.40;;;;;;5083198;28;20104;-57
2023/09/09 09:43:48;;;;;;;94.05;20.60;;;24.30;96.40;;;;;;5068917;28;20102;-56
2023/09/09 09:46:17;;;;;;;107.75;19.58;;;24.30;96.40;;;;;;5063678;28;20123;-56
2023/09/09 09:48:42;;;;;;;106.03;19.13;;;24.40;96.50;;;;;;5071387;28;20430;-56
2023/09/09 09:51:08;;;;;;;82.53;18.00;;;24.40;96.50;;;;;;5064782;28;20098;-57
2023/09/09 09:53:40;;;;;;;74.03;17.95;;;24.40;96.40;;;;;;5085117;28;20036;-57
2023/09/09 09:56:06;;;;;;;68.80;16.25;;;24.50;96.30;;;;;;5037482;28;20033;-56
2023/09/09 09:58:32;;;;;;;89.80;17.48;;;24.50;96.10;;;;;;5080517;28;20093;-57
2023/09/09 10:00:57;;;;;;;74.65;16.48;;;24.50;96.00;;;;;;5028341;28;20044;-57
2023/09/09 10:03:23;;;;;;;86.63;18.48;;;24.50;95.90;;;;;;5057775;28;20033;-56
2023/09/09 10:05:49;;;;;;;90.70;20.58;;;24.60;95.70;;;;;;5046854;28;20104;-56
2023/09/09 10:08:19;;;;;;;102.45;19.42;;;24.60;95.70;;;;;;5047429;28;20064;-56
2023/09/09 10:11:04;;;;;;;106.15;20.08;;;24.70;95.70;;;;;;5086839;28;20040;-56
2023/09/09 10:13:35;;;;;;;116.32;19.45;;;24.80;95.40;;;;;;5069297;28;20480;-57
2023/09/09 10:16:01;;;;;;;117.63;18.80;;;24.80;95.30;;;;;;5086933;28;20036;-57
2023/09/09 10:18:26;;;;;;;106.57;18.83;;;24.80;95.10;;;;;;5059141;28;20054;-57
2023/09/09 10:20:52;;;;;;;116.40;20.85;;;24.80;94.90;;;;;;5028618;28;20119;-56
2023/09/09 10:23:18;;;;;;;122.63;20.67;;;24.90;95.20;;;;;;5054436;28;20032;-57
2023/09/09 10:25:43;;;;;;;102.75;19.33;;;24.90;95.00;;;;;;5078883;28;20043;-57
2023/09/09 10:28:09;;;;;;;87.72;18.95;;;25.00;94.80;;;;;;5051246;28;20048;-57
2023/09/09 10:30:34;;;;;;;133.85;19.75;;;25.00;94.80;;;;;;5066750;28;20064;-57
2023/09/09 10:33:00;;;;;;;83.13;18.25;;;25.10;94.60;;;;;;5051330;28;20040;-56
2023/09/09 10:35:25;;;;;;;99.18;19.95;;;25.10;94.30;;;;;;5051046;28;20052;-57
2023/09/09 10:37:51;;;;;;;95.03;18.58;;;25.20;94.10;;;;;;5034444;28;20499;-56
2023/09/09 10:40:17;;;;;;;105.65;18.27;;;25.20;94.10;;;;;;5084078;28;20051;-56
2023/09/09 10:42:42;;;;;;;105.53;19.75;;;25.20;94.00;;;;;;5035006;28;20033;-57
2023/09/09 10:45:30;;;;;;;126.47;21.00;;;25.20;94.10;;;;;;5052973;28;20032;-56
2023/09/09 10:47:58;;;;;;;90.60;18.98;;;25.30;93.70;;;;;;5086803;28;20033;-57
2023/09/09 10:50:38;;;;;;;112.25;20.63;;;25.40;93.50;;;;;;5068792;28;20040;-57
2023/09/09 10:53:18;;;;;;;127.43;19.42;;;25.40;93.30;;;;;;5069573;28;20114;-56
2023/09/09 10:55:45;;;;;;;109.43;18.73;;;25.50;93.10;;;;;;5087533;28;20044;-57
2023/09/09 10:58:14;;;;;;;96.85;18.63;;;25.60;92.90;;;;;;5087187;28;20043;-56
2023/09/09 11:00:41;;;;;;;87.78;17.60;;;25.60;92.70;;;;;;5052461;28;20025;-56
2023/09/09 11:03:28;;;;;;;98.20;18.50;;;25.60;92.70;;;;;;5086276;28;20086;-57
2023/09/09 11:06:06;;;;;;;78.22;17.42;;;25.60;92.60;;;;;;5069153;28;20045;-57
2023/09/09 11:08:35;;;;;;;67.22;16.77;;;25.60;92.50;;;;;;5079122;28;20036;-57
2023/09/09 11:11:24;;;;;;;105.03;17.98;;;25.60;92.40;;;;;;5051916;28;20460;-56
2023/09/09 11:14:05;;;;;;;97.25;20.10;;;25.70;92.10;;;;;;5063812;28;20033;-56
2023/09/09 11:16:35;;;;;;;113.45;20.08;;;25.80;91.90;;;;;;5086299;28;20037;-56
2023/09/09 11:19:02;;;;;;;123.97;20.90;;;25.90;91.60;;;;;;5086891;28;20116;-56
2023/09/09 11:21:30;;;;;;;93.70;17.45;;;26.00;91.40;;;;;;5068533;28;20033;-57
2023/09/09 11:23:56;;;;;;;101.90;16.45;;;26.00;91.30;;;;;;5052387;28;20377;-56
2023/09/09 11:26:21;;;;;;;118.05;19.10;;;26.00;91.30;;;;;;5061073;28;20044;-57
2023/09/09 11:28:48;;;;;;;114.88;18.50;;;26.00;91.20;;;;;;5085450;28;20033;-56
2023/09/09 11:31:14;;;;;;;85.93;17.77;;;26.10;91.10;;;;;;5068790;28;20048;-57
2023/09/09 11:33:39;;;;;;;95.88;18.15;;;26.10;91.00;;;;;;5086461;28;20041;-55
2023/09/09 11:36:05;;;;;;;151.07;23.67;;;26.20;90.90;;;;;;5084622;28;20052;-57
2023/09/09 11:38:32;;;;;;;108.07;16.85;;;26.30;90.60;;;;;;5082576;28;20043;-56
2023/09/09 11:40:57;;;;;;;92.00;17.23;;;26.30;90.40;;;;;;5068213;28;20040;-57
2023/09/09 11:43:23;;;;;;;89.35;17.88;;;26.50;90.20;;;;;;5068620;28;20063;-57
2023/09/09 11:45:49;;;;;;;127.28;19.15;;;26.50;90.20;;;;;;5068640;28;20397;-56
2023/09/09 11:48:15;;;;;;;104.43;17.95;;;26.50;90.10;;;;;;5085823;28;20036;-57
2023/09/09 11:50:42;;;;;;;117.10;18.50;;;26.50;89.60;;;;;;5051651;28;20166;-56
2023/09/09 11:53:08;;;;;;;104.82;18.08;;;26.60;89.10;;;;;;5085324;28;20055;-57
2023/09/09 11:55:34;;;;;;;94.32;17.50;;;26.70;88.70;;;;;;5051768;28;20093;-57
2023/09/09 11:57:59;;;;;;;60.13;13.88;;;26.80;88.20;;;;;;5047434;28;20036;-56
2023/09/09 12:00:25;;;;;;;73.13;14.55;;;26.80;87.00;;;;;;5080065;28;20037;-56
2023/09/09 12:02:50;;;;;;;78.32;15.90;;;26.90;86.00;;;;;;5076013;28;20059;-56
2023/09/09 12:05:16;;;;;;;90.07;14.75;;;26.90;86.10;;;;;;5074807;28;20041;-57
2023/09/09 12:07:41;;;;;;;85.07;16.17;;;27.00;85.90;;;;;;5065873;28;20032;-56
2023/09/09 12:10:07;;;;;;;71.28;13.50;;;27.00;85.40;;;;;;5051443;28;20060;-57
2023/09/09 12:12:33;;;;;;;72.57;13.30;;;27.10;85.10;;;;;;5049072;28;20040;-57
2023/09/09 12:14:58;;;;;;;83.40;15.38;;;27.10;84.70;;;;;;5085936;28;20485;-57
2023/09/09 12:17:24;;;;;;;77.93;13.82;;;27.10;84.40;;;;;;5067996;28;20035;-57
2023/09/09 12:19:54;;;;;;;139.70;20.20;;;27.20;84.20;;;;;;5067816;28;20047;-56
2023/09/09 12:22:33;;;;;;;85.03;15.18;;;27.30;83.80;;;;;;5051379;28;20040;-56
2023/09/09 12:24:59;;;;;;;95.50;16.13;;;27.40;83.40;;;;;;5086016;28;20044;-57
2023/09/09 12:27:44;;;;;;;88.05;15.93;;;27.40;83.20;;;;;;5066215;28;20510;-56
2023/09/09 12:30:31;;;;;;;87.97;14.05;;;27.50;83.00;;;;;;5068371;28;20060;-57
2023/09/09 12:33:07;;;;;;;85.32;13.90;;;27.50;83.10;;;;;;5085822;28;20062;-58